Tobol'Sk, Russia
Current Conditions -  °F | °C
As of 9:00 PM on Friday 28 Nov 2014 (Local Time) from USTR Reporting Station
Moderate Snow Moderate Snow  
Wind Chill: -11°   Ceiling: 3300
Heat Index:   Visibility: 1.2mi
Dew Point:   Wind: 16mph
Humidity: 92%   Direction: 210°SSW
Pressure: 30.48"   Gusts: NA
Location:  58.15°N, 68.25°E
Report Text: USTR 281600Z 21007MPS 2000 SN BKN033 OVC073 M14/M15 Q1032 TEMPO0800 +SN VV003 RMK QFE764/1019 21450355 12450355
Loading
Personal Weather Stations






























Interactive Weather Map New forecast layout! Learn more

10-Day Weather Forecast

Advertisements
Track Severe Weather on mobile